Terminal Aerodrome Forecast
Issued by NWS

Home | Current Version | Previous Version | Graphics & Text | Print | Product List | Glossary On
Versions: 1 2 3 4 5 6 7 8 9 10 11 12 13 14 15 16 17 18 19 20 21 22 23 24 25 26
000
FTUS43 KGRB 301600 AAC
TAFRHI
TAF AMD
KRHI 301641Z 3017/0112 36008KT P6SM SCT025 SCT050
      TEMPO 3017/3018 BKN025
     FM302100 01005KT P6SM SKC
     FM010300 00000KT P6SM SKC=

USA.gov is the U.S. government's official web portal to all federal, state and local government web resources and services.